createdAt,value
2019-05-26T00:00:26.946Z,12.65
2019-05-26T00:01:26.985Z,12.45
2019-05-26T00:02:27.007Z,12.53
2019-05-26T00:03:27.034Z,12.49
2019-05-26T00:04:27.067Z,12.31
2019-05-26T00:05:27.096Z,12.34
2019-05-26T00:06:27.126Z,12.37
2019-05-26T00:07:30.769Z,12.45
2019-05-26T00:08:27.187Z,12.35
2019-05-26T00:09:27.218Z,12.23
2019-05-26T00:10:27.248Z,12.24
2019-05-26T00:11:27.280Z,12.10
2019-05-26T00:12:27.314Z,12.10
2019-05-26T00:13:27.357Z,12.12
2019-05-26T00:14:27.371Z,12.12
2019-05-26T00:15:27.403Z,12.09
2019-05-26T00:16:27.434Z,12.07
2019-05-26T00:17:27.464Z,12.02
2019-05-26T00:18:27.492Z,12.01
2019-05-26T00:19:27.522Z,11.99
2019-05-26T00:20:27.553Z,11.96
2019-05-26T00:21:27.583Z,12.01
2019-05-26T00:22:27.618Z,11.95
2019-05-26T00:23:27.644Z,11.98
2019-05-26T00:24:27.675Z,11.95
2019-05-26T00:25:27.705Z,11.96
2019-05-26T00:26:27.735Z,11.99
2019-05-26T00:27:27.768Z,11.90
2019-05-26T00:28:27.798Z,11.90
2019-05-26T00:29:27.828Z,11.96
2019-05-26T00:30:27.858Z,11.91
2019-05-26T00:31:27.890Z,11.90
2019-05-26T00:32:27.919Z,11.94
2019-05-26T00:33:27.955Z,11.85
2019-05-26T00:34:27.979Z,11.78
2019-05-26T00:35:28.012Z,11.80
2019-05-26T00:36:28.042Z,11.76
2019-05-26T00:37:28.069Z,11.78
2019-05-26T00:38:28.102Z,11.90
2019-05-26T00:39:28.131Z,11.98
2019-05-26T00:40:28.161Z,12.14
2019-05-26T00:41:28.192Z,12.09
2019-05-26T00:42:28.221Z,12.09
2019-05-26T00:43:28.255Z,12.24
2019-05-26T00:44:28.289Z,12.21
2019-05-26T00:45:28.312Z,12.28
2019-05-26T00:46:28.343Z,12.24
2019-05-26T00:47:28.373Z,12.32
2019-05-26T00:48:28.407Z,12.32
2019-05-26T00:49:28.437Z,12.23
2019-05-26T00:50:28.465Z,12.35
2019-05-26T00:51:28.494Z,12.32
2019-05-26T00:52:28.525Z,12.32
2019-05-26T00:53:28.554Z,12.39
2019-05-26T00:54:28.585Z,12.39
2019-05-26T00:55:28.616Z,12.39
2019-05-26T00:56:28.647Z,12.37
2019-05-26T00:57:28.675Z,12.34
2019-05-26T00:58:28.706Z,12.32
2019-05-26T00:59:28.739Z,12.29
2019-05-26T01:00:28.767Z,12.24
2019-05-26T01:01:28.797Z,12.09
2019-05-26T01:02:28.829Z,11.99
2019-05-26T01:03:28.857Z,11.95
2019-05-26T01:04:28.887Z,11.94
2019-05-26T01:05:28.917Z,11.90
2019-05-26T01:06:28.947Z,12.05
2019-05-26T01:07:28.977Z,11.98
2019-05-26T01:08:29.008Z,11.94
2019-05-26T01:09:29.036Z,11.98
2019-05-26T01:10:29.067Z,11.99
2019-05-26T01:11:29.100Z,12.14
2019-05-26T01:12:29.129Z,12.09
2019-05-26T01:13:29.158Z,12.09
2019-05-26T01:14:29.188Z,12.05
2019-05-26T01:15:29.217Z,12.07
2019-05-26T01:16:29.247Z,12.10
2019-05-26T01:17:29.384Z,12.05
2019-05-26T01:18:29.310Z,11.95
2019-05-26T01:19:29.337Z,11.88
2019-05-26T01:20:29.369Z,11.98
2019-05-26T01:21:29.409Z,11.94
2019-05-26T01:22:29.427Z,11.90
2019-05-26T01:23:29.460Z,11.91
2019-05-26T01:24:29.513Z,11.91
2019-05-26T01:25:29.518Z,11.86
2019-05-26T01:26:29.548Z,11.82
2019-05-26T01:27:29.576Z,11.80
2019-05-26T01:28:29.607Z,11.82
2019-05-26T01:29:29.637Z,11.75
2019-05-26T01:30:32.289Z,11.75
2019-05-26T01:31:29.702Z,11.80
2019-05-26T01:32:29.727Z,11.80
2019-05-26T01:33:29.755Z,11.78
2019-05-26T01:34:29.787Z,11.65
2019-05-26T01:35:29.818Z,11.70
2019-05-26T01:36:29.848Z,11.65
2019-05-26T01:37:29.879Z,11.55
2019-05-26T01:39:29.936Z,11.51
2019-05-26T01:40:29.967Z,11.57
2019-05-26T01:41:29.996Z,11.57
2019-05-26T01:42:30.026Z,11.65
2019-05-26T01:43:31.268Z,11.62
2019-05-26T01:44:30.088Z,11.69
2019-05-26T01:45:30.115Z,11.60
2019-05-26T01:46:30.145Z,11.62
2019-05-26T01:47:30.176Z,11.55
2019-05-26T01:48:30.207Z,11.57
2019-05-26T01:49:30.234Z,11.57
2019-05-26T01:50:30.264Z,11.46
2019-05-26T01:51:30.294Z,11.47
2019-05-26T01:52:30.325Z,11.42
2019-05-26T01:53:30.353Z,11.49
2019-05-26T01:54:30.383Z,11.49
2019-05-26T01:55:30.414Z,11.42
2019-05-26T01:56:30.446Z,11.28
2019-05-26T01:57:30.473Z,11.28
2019-05-26T01:58:30.504Z,11.19
2019-05-26T01:59:30.534Z,11.10
2019-05-26T02:00:30.563Z,11.10
2019-05-26T02:01:30.592Z,11.02
2019-05-26T02:02:30.623Z,11.02
2019-05-26T02:03:30.656Z,10.94
2019-05-26T02:04:30.850Z,10.89
2019-05-26T02:05:30.715Z,10.99
2019-05-26T02:06:30.741Z,11.03
2019-05-26T02:07:30.772Z,11.06
2019-05-26T02:09:30.833Z,11.06
2019-05-26T02:10:30.860Z,11.11
2019-05-26T02:11:30.890Z,11.07
2019-05-26T02:12:30.921Z,11.11
2019-05-26T02:13:30.950Z,11.10
2019-05-26T02:14:30.980Z,11.07
2019-05-26T02:15:31.009Z,10.96
2019-05-26T02:16:31.039Z,11.00
2019-05-26T02:17:31.068Z,11.11
2019-05-26T02:18:31.097Z,10.99
2019-05-26T02:19:31.128Z,11.04
2019-05-26T02:20:31.158Z,10.94
2019-05-26T02:21:31.188Z,11.02
2019-05-26T02:22:31.217Z,10.91
2019-05-26T02:23:31.246Z,10.94
2019-05-26T02:25:31.305Z,10.91
2019-05-26T02:26:31.339Z,10.94
2019-05-26T02:27:31.770Z,11.04
2019-05-26T02:28:31.394Z,11.03
2019-05-26T02:30:31.660Z,11.07
2019-05-26T02:31:31.693Z,11.03
2019-05-26T02:32:31.514Z,11.06
2019-05-26T02:33:31.543Z,11.09
2019-05-26T02:34:31.573Z,11.09
2019-05-26T02:35:31.603Z,11.03
2019-05-26T02:36:31.632Z,11.07
2019-05-26T02:37:31.660Z,11.00
2019-05-26T02:38:31.693Z,11.03
2019-05-26T02:39:31.723Z,11.15
2019-05-26T02:40:31.755Z,11.07
2019-05-26T02:41:31.781Z,11.07
2019-05-26T02:42:31.820Z,11.06
2019-05-26T02:43:31.840Z,11.10
2019-05-26T02:44:31.870Z,11.06
2019-05-26T02:45:31.904Z,11.02
2019-05-26T02:46:31.933Z,11.06
2019-05-26T02:47:31.960Z,11.00
2019-05-26T02:48:31.989Z,10.88
2019-05-26T02:49:32.020Z,10.96
2019-05-26T02:50:32.046Z,10.97
2019-05-26T02:51:32.078Z,10.92
2019-05-26T02:52:32.108Z,10.91
2019-05-26T02:53:32.135Z,10.99
2019-05-26T02:54:32.168Z,10.94
2019-05-26T02:55:32.194Z,10.84
2019-05-26T02:56:32.225Z,10.85
2019-05-26T02:57:32.255Z,10.78
2019-05-26T02:58:32.284Z,10.63
2019-05-26T02:59:32.314Z,10.66
2019-05-26T03:00:32.343Z,10.55
2019-05-26T03:02:14.925Z,10.61
2019-05-26T03:03:14.974Z,10.48
2019-05-26T03:04:14.978Z,10.52
2019-05-26T03:05:15.007Z,10.48
2019-05-26T03:06:15.036Z,10.52
2019-05-26T03:07:15.064Z,10.63
2019-05-26T03:08:15.097Z,10.53
2019-05-26T03:09:22.517Z,10.66
2019-05-26T03:10:15.172Z,10.67
2019-05-26T03:11:15.183Z,10.82
2019-05-26T03:12:15.215Z,10.79
2019-05-26T03:13:15.255Z,10.91
2019-05-26T03:14:15.275Z,10.96
2019-05-26T03:15:15.399Z,10.96
2019-05-26T03:16:15.332Z,10.94
2019-05-26T03:17:15.359Z,10.91
2019-05-26T03:18:15.409Z,11.02
2019-05-26T03:19:15.419Z,10.91
2019-05-26T03:20:15.465Z,10.99
2019-05-26T03:21:15.477Z,11.02
2019-05-26T03:22:15.514Z,11.00
2019-05-26T03:23:15.539Z,10.99
2019-05-26T03:24:15.580Z,10.92
2019-05-26T03:25:15.595Z,10.91
2019-05-26T03:26:15.624Z,10.85
2019-05-26T03:27:15.655Z,10.86
2019-05-26T03:35:56.554Z,10.85
2019-05-26T03:36:56.583Z,10.85
2019-05-26T03:37:56.607Z,10.89
2019-05-26T03:38:56.637Z,10.89
2019-05-26T03:39:56.667Z,10.89
2019-05-26T03:40:56.701Z,10.97
2019-05-26T03:41:56.729Z,11.03
2019-05-26T03:42:59.211Z,10.92
2019-05-26T03:43:56.791Z,10.92
2019-05-26T03:44:56.813Z,10.89
2019-05-26T03:45:56.842Z,10.81
2019-05-26T03:46:56.946Z,10.91
2019-05-26T03:47:56.902Z,10.91
2019-05-26T03:48:56.930Z,10.85
2019-05-26T03:49:56.968Z,10.94
2019-05-26T03:50:56.989Z,10.94
2019-05-26T03:51:57.017Z,10.86
2019-05-26T03:52:57.048Z,10.89
2019-05-26T03:53:57.077Z,10.85
2019-05-26T03:54:57.116Z,10.76
2019-05-26T03:55:57.140Z,10.79
2019-05-26T03:56:57.177Z,10.68
2019-05-26T03:57:57.193Z,10.70
2019-05-26T03:58:57.224Z,10.76
2019-05-26T03:59:57.252Z,10.79
2019-05-26T04:00:57.284Z,10.79
2019-05-26T04:09:33.211Z,10.89
2019-05-26T04:10:33.240Z,10.81
2019-05-26T04:11:33.269Z,10.79
2019-05-26T04:12:33.316Z,10.73
2019-05-26T04:13:33.324Z,10.71
2019-05-26T04:14:33.352Z,10.71
2019-05-26T04:15:33.383Z,10.63
2019-05-26T04:16:33.413Z,10.63
2019-05-26T04:17:33.440Z,10.60
2019-05-26T04:18:33.467Z,10.60
2019-05-26T04:19:33.524Z,10.60
2019-05-26T04:20:33.525Z,10.60
2019-05-26T04:21:33.554Z,10.64
2019-05-26T04:22:33.585Z,10.74
2019-05-26T04:23:33.622Z,10.71
2019-05-26T04:24:33.642Z,10.81
2019-05-26T04:25:33.675Z,10.86
2019-05-26T04:26:33.706Z,10.85
2019-05-26T04:27:33.747Z,10.85
2019-05-26T04:28:33.759Z,10.85
2019-05-26T04:29:33.787Z,10.82
2019-05-26T04:32:02.225Z,10.88
2019-05-26T04:33:01.499Z,10.86
2019-05-26T04:34:01.530Z,10.88
2019-05-26T04:35:01.565Z,10.91
2019-05-26T04:36:01.588Z,10.84
2019-05-26T04:37:01.615Z,10.86
2019-05-26T04:38:01.655Z,10.97
2019-05-26T04:39:01.692Z,10.92
2019-05-26T04:40:01.704Z,10.99
2019-05-26T04:41:01.737Z,10.92
2019-05-26T04:42:01.764Z,10.96
2019-05-26T04:43:01.796Z,11.03
2019-05-26T04:44:01.823Z,11.09
2019-05-26T04:45:01.852Z,10.99
2019-05-26T04:46:01.885Z,11.09
2019-05-26T04:47:01.910Z,11.11
2019-05-26T04:48:01.942Z,11.14
2019-05-26T04:49:01.972Z,11.09
2019-05-26T04:50:01.999Z,11.17
2019-05-26T04:51:02.044Z,11.22
2019-05-26T04:52:02.059Z,11.33
2019-05-26T04:54:04.685Z,11.29
2019-05-26T04:55:04.708Z,11.37
2019-05-26T04:56:04.739Z,11.36
2019-05-26T04:57:04.768Z,11.46
2019-05-26T04:58:04.800Z,11.40
2019-05-26T04:59:04.826Z,11.46
2019-05-26T05:00:04.858Z,11.60
2019-05-26T05:01:04.887Z,11.60
2019-05-26T05:02:04.970Z,11.62
2019-05-26T05:03:04.948Z,11.67
2019-05-26T05:04:04.978Z,11.61
2019-05-26T05:05:05.007Z,11.73
2019-05-26T05:06:05.037Z,11.69
2019-05-26T05:07:05.067Z,11.73
2019-05-26T05:08:06.248Z,11.75
2019-05-26T06:10:46.794Z,14.52
2019-05-26T06:11:46.852Z,14.57
2019-05-26T06:15:46.975Z,14.69
2019-05-26T06:17:50.329Z,14.77
2019-05-26T06:18:47.046Z,14.78
2019-05-26T06:19:47.077Z,14.96
2019-05-26T06:20:47.108Z,15.01
2019-05-26T06:21:47.142Z,14.98
2019-05-26T06:22:47.171Z,15.02
2019-05-26T06:23:47.204Z,15.13
2019-05-26T06:24:47.236Z,15.20
2019-05-26T06:25:47.267Z,15.29
2019-05-26T06:26:47.299Z,15.20
2019-05-26T06:27:47.331Z,15.27
2019-05-26T06:28:47.363Z,15.43
2019-05-26T06:29:58.448Z,15.35
2019-05-26T06:30:47.425Z,15.34
2019-05-26T06:31:47.743Z,15.44
2019-05-26T06:32:47.490Z,15.54
2019-05-26T06:33:47.524Z,15.65
2019-05-26T06:34:47.554Z,15.65
2019-05-26T06:35:47.585Z,15.82
2019-05-26T06:36:47.622Z,15.87
2019-05-26T06:37:47.654Z,15.94
2019-05-26T06:38:47.748Z,15.94
2019-05-26T06:39:47.715Z,15.97
2019-05-26T06:40:47.748Z,15.96
2019-05-26T06:41:47.803Z,16.04
2019-05-26T06:42:47.810Z,16.08
2019-05-26T06:43:47.843Z,16.23
2019-05-26T06:44:53.516Z,16.30
2019-05-26T06:45:48.112Z,16.30
2019-05-26T06:46:47.962Z,16.28
2019-05-26T06:47:47.977Z,16.31
2019-05-26T06:48:48.005Z,16.34
2019-05-26T06:49:48.038Z,16.42
2019-05-26T06:50:48.088Z,16.43
2019-05-26T06:51:48.102Z,16.56
2019-05-26T06:52:48.136Z,16.67
2019-05-26T06:53:48.228Z,16.67
2019-05-26T06:54:48.200Z,16.78
2019-05-26T06:55:48.234Z,16.81
2019-05-26T06:56:48.265Z,16.85
2019-05-26T06:57:48.299Z,16.91
2019-05-26T06:59:48.363Z,17.04
2019-05-26T07:00:48.397Z,17.07
2019-05-26T07:01:48.430Z,17.07
2019-05-26T07:03:48.800Z,17.22
2019-05-26T07:05:48.564Z,17.46
2019-05-26T07:06:48.620Z,17.51
2019-05-26T07:07:48.629Z,17.52
2019-05-26T07:08:48.663Z,17.54
2019-05-26T07:09:48.695Z,17.58
2019-05-26T07:10:48.727Z,17.56
2019-05-26T07:11:57.081Z,17.51
2019-05-26T07:12:48.795Z,17.58
2019-05-26T07:13:48.827Z,17.75
2019-05-26T07:14:48.860Z,17.81
2019-05-26T07:15:48.895Z,17.84
2019-05-26T07:16:48.927Z,17.86
2019-05-26T07:18:49.017Z,17.96
2019-05-26T07:19:49.051Z,17.90
2019-05-26T07:21:49.323Z,18.03
2019-05-26T07:22:49.152Z,18.10
2019-05-26T07:23:49.187Z,18.21
2019-05-26T07:36:08.477Z,18.81
2019-05-26T07:37:08.513Z,18.87
2019-05-26T07:38:08.546Z,19.02
2019-05-26T07:39:08.576Z,19.06
2019-05-26T07:40:08.610Z,19.08
2019-05-26T07:41:08.648Z,19.13
2019-05-26T07:42:10.943Z,19.28
2019-05-26T07:43:08.734Z,19.40
2019-05-26T07:44:08.771Z,19.50
2019-05-26T07:45:08.778Z,19.46
2019-05-26T07:46:08.813Z,19.44
2019-05-26T07:47:08.846Z,19.33
2019-05-26T07:48:09.182Z,19.43
2019-05-26T07:49:08.936Z,19.40
2019-05-26T07:50:08.976Z,19.47
2019-05-26T07:53:39.883Z,19.73
2019-05-26T07:54:39.912Z,19.77
2019-05-26T07:55:39.947Z,19.95
2019-05-26T07:56:39.979Z,20.02
2019-05-26T07:57:40.017Z,20.13
2019-05-26T07:58:40.050Z,20.11
2019-05-26T07:59:40.085Z,20.13
2019-05-26T08:00:40.122Z,20.08
2019-05-26T08:01:40.483Z,20.28
2019-05-26T08:02:40.191Z,20.24
2019-05-26T08:03:40.223Z,20.35
2019-05-26T08:04:40.259Z,20.42
2019-05-26T08:05:40.293Z,20.33
2019-05-26T08:06:40.330Z,20.39
2019-05-26T08:07:40.364Z,20.52
2019-05-26T08:08:40.405Z,20.61
2019-05-26T08:09:40.435Z,20.52
2019-05-26T08:10:40.470Z,20.33
2019-05-26T08:11:40.505Z,20.51
2019-05-26T08:12:40.545Z,20.61
2019-05-26T08:13:40.576Z,20.72
2019-05-26T08:14:40.668Z,20.79
2019-05-26T08:15:40.977Z,20.80
2019-05-26T08:16:40.682Z,20.82
2019-05-26T08:17:40.723Z,20.85
2019-05-26T08:18:40.777Z,20.84
2019-05-26T08:22:12.117Z,20.77
2019-05-26T08:23:12.254Z,20.91
2019-05-26T08:27:11.866Z,21.16
2019-05-26T08:28:11.905Z,21.22
2019-05-26T08:29:11.938Z,21.04
2019-05-26T08:30:11.975Z,21.06
2019-05-26T08:31:13.448Z,21.01
2019-05-26T08:32:14.903Z,21.10
2019-05-26T08:36:12.190Z,21.16
2019-05-26T08:38:12.500Z,21.46
2019-05-26T08:40:12.337Z,21.58
2019-05-26T08:41:12.397Z,21.72
2019-05-26T08:42:26.386Z,21.84
2019-05-26T08:44:12.503Z,21.59
2019-05-26T08:45:12.541Z,21.88
2019-05-26T08:46:12.581Z,21.62
2019-05-26T08:48:12.653Z,21.56
2019-05-26T08:49:13.295Z,21.72
2019-05-26T08:50:12.927Z,21.82
2019-05-26T08:51:13.168Z,21.91
2019-05-26T08:52:12.798Z,21.50
2019-05-26T08:53:12.834Z,21.43
2019-05-26T08:54:12.874Z,21.61
2019-05-26T08:55:12.912Z,21.35
2019-05-26T08:57:12.960Z,21.71
2019-05-26T08:59:13.062Z,21.83
2019-05-26T09:04:39.059Z,22.60
2019-05-26T09:05:39.099Z,22.83
2019-05-26T09:07:39.174Z,23.25
2019-05-26T09:09:47.182Z,23.58
2019-05-26T09:10:47.044Z,23.66
2019-05-26T09:11:47.258Z,23.68
2019-05-26T09:12:59.654Z,23.23
2019-05-26T09:13:47.735Z,23.01
2019-05-26T09:14:47.189Z,22.97
2019-05-26T09:15:47.429Z,22.79
2019-05-26T09:16:47.239Z,22.67
2019-05-26T09:17:47.369Z,22.91
2019-05-26T09:18:47.315Z,23.02
2019-05-26T09:19:47.379Z,23.00
2019-05-26T09:20:47.389Z,23.09
2019-05-26T09:21:47.432Z,23.35
2019-05-26T09:22:47.470Z,23.38
2019-05-26T09:23:47.977Z,23.66
2019-05-26T09:24:47.544Z,23.73
2019-05-26T09:25:47.578Z,23.58
2019-05-26T09:26:47.619Z,23.75
2019-05-26T09:27:47.679Z,23.79
2019-05-26T09:28:47.692Z,23.40
2019-05-26T09:29:47.731Z,23.25
2019-05-26T09:30:47.768Z,23.40
2019-05-26T09:31:47.805Z,23.60
2019-05-26T09:32:47.843Z,23.91
2019-05-26T09:33:47.883Z,24.10
2019-05-26T09:34:47.923Z,23.85
2019-05-26T09:35:47.959Z,24.05
2019-05-26T09:36:47.996Z,23.87
2019-05-26T09:37:48.035Z,23.65
2019-05-26T09:38:48.076Z,23.79
2019-05-26T09:39:48.111Z,23.97
2019-05-26T09:40:48.150Z,24.16
2019-05-26T09:41:48.390Z,23.65
2019-05-26T09:42:48.227Z,23.50
2019-05-26T09:43:48.264Z,23.50
2019-05-26T09:44:48.303Z,23.70
2019-05-26T09:45:48.367Z,23.87
2019-05-26T09:46:48.381Z,24.12
2019-05-26T09:47:48.425Z,24.21
2019-05-26T09:48:48.458Z,24.32
2019-05-26T09:49:51.119Z,23.98
2019-05-26T09:50:48.537Z,23.57
2019-05-26T09:51:48.572Z,23.79
2019-05-26T09:52:48.611Z,24.15
2019-05-26T09:54:00.823Z,24.40
2019-05-26T09:54:48.690Z,24.68
2019-05-26T09:55:48.728Z,24.81
2019-05-26T09:56:48.768Z,24.40
2019-05-26T09:57:48.832Z,24.40
2019-05-26T09:58:48.845Z,24.50
2019-05-26T09:59:48.882Z,24.13
2019-05-26T10:00:48.922Z,24.37
2019-05-26T10:01:48.972Z,24.49
2019-05-26T10:02:49.004Z,24.55
2019-05-26T10:03:49.038Z,24.73
2019-05-26T10:04:49.079Z,24.53
2019-05-26T10:05:49.117Z,24.27
2019-05-26T10:06:49.158Z,24.37
2019-05-26T10:07:49.196Z,24.40
2019-05-26T10:08:49.236Z,24.43
2019-05-26T10:09:49.275Z,24.67
2019-05-26T10:10:49.312Z,24.76
2019-05-26T10:11:49.351Z,24.78
2019-05-26T10:12:49.391Z,24.88
2019-05-26T10:13:49.430Z,24.98
2019-05-26T10:14:49.471Z,25.14
2019-05-26T10:15:49.509Z,25.36
2019-05-26T10:16:49.548Z,25.47
2019-05-26T10:17:49.587Z,25.27
2019-05-26T10:18:49.649Z,25.00
2019-05-26T10:19:49.667Z,24.83
2019-05-26T10:20:49.733Z,24.88
2019-05-26T10:21:49.745Z,25.00
2019-05-26T10:22:49.784Z,25.23
2019-05-26T10:23:52.926Z,25.46
2019-05-26T10:24:49.864Z,25.69
2019-05-26T10:25:49.907Z,25.82
2019-05-26T10:26:49.946Z,26.35
2019-05-26T10:27:53.021Z,26.62
2019-05-26T10:28:50.023Z,26.73
2019-05-26T10:29:50.063Z,27.49
2019-05-26T10:30:50.308Z,28.36
2019-05-26T10:31:50.145Z,28.76
2019-05-26T10:32:50.184Z,29.05
2019-05-26T10:33:50.226Z,28.96
2019-05-26T10:34:52.890Z,29.71
2019-05-26T10:35:50.309Z,30.13
2019-05-26T10:36:50.356Z,30.15
2019-05-26T10:37:50.395Z,30.60
2019-05-26T10:38:50.846Z,31.13
2019-05-26T10:39:50.503Z,31.09
2019-05-26T10:40:50.551Z,30.53
2019-05-26T10:41:50.613Z,30.98
2019-05-26T10:42:50.616Z,31.48
2019-05-26T10:43:50.661Z,31.78
2019-05-26T10:44:50.707Z,32.26
2019-05-26T10:45:50.756Z,32.45
2019-05-26T10:46:50.799Z,32.41
2019-05-26T10:47:50.846Z,31.58
2019-05-26T10:48:50.891Z,31.38
2019-05-26T10:49:50.943Z,31.32
2019-05-26T10:50:50.988Z,31.91
2019-05-26T10:51:51.035Z,31.76
2019-05-26T10:52:51.082Z,32.48
2019-05-26T10:53:51.132Z,32.78
2019-05-26T10:54:51.179Z,32.77
2019-05-26T10:55:51.227Z,32.50
2019-05-26T10:56:51.860Z,30.46
2019-05-26T10:58:51.374Z,30.07
2019-05-26T10:59:51.494Z,30.34
2019-05-26T11:00:51.473Z,30.67
2019-05-26T11:01:51.519Z,30.98
2019-05-26T11:02:51.570Z,30.47
2019-05-26T11:03:51.618Z,30.65
2019-05-26T11:04:51.666Z,31.17
2019-05-26T11:05:51.716Z,30.15
2019-05-26T11:06:51.765Z,30.82
2019-05-26T11:07:51.813Z,30.45
2019-05-26T11:08:51.864Z,31.13
2019-05-26T11:09:51.912Z,31.01
2019-05-26T11:10:51.966Z,31.17
2019-05-26T11:11:52.012Z,31.06
2019-05-26T11:12:52.062Z,30.86
2019-05-26T11:14:02.554Z,31.31
2019-05-26T11:14:52.161Z,31.32
2019-05-26T11:15:52.211Z,31.73
2019-05-26T11:16:52.261Z,31.47
2019-05-26T11:17:52.313Z,31.29
2019-05-26T11:18:52.362Z,30.83
2019-05-26T11:19:52.411Z,31.07
2019-05-26T11:20:52.462Z,31.35
2019-05-26T11:21:52.513Z,32.50
2019-05-26T11:22:52.563Z,33.53
2019-05-26T11:23:52.626Z,34.00
2019-05-26T11:24:52.669Z,34.64
2019-05-26T11:25:52.716Z,34.06
2019-05-26T11:26:52.779Z,33.50
2019-05-26T11:27:52.818Z,33.11
2019-05-26T11:28:52.868Z,33.34
2019-05-26T11:29:52.918Z,34.40
2019-05-26T11:30:52.971Z,35.02
2019-05-26T11:31:53.021Z,35.29
2019-05-26T11:32:53.070Z,36.12
2019-05-26T11:33:53.121Z,35.25
2019-05-26T11:35:01.660Z,34.66
2019-05-26T11:35:53.276Z,34.08
2019-05-26T11:36:53.276Z,34.27
2019-05-26T11:37:53.379Z,34.10
2019-05-26T11:38:53.383Z,33.72
2019-05-26T11:39:53.430Z,33.90
2019-05-26T11:40:53.554Z,33.90
2019-05-26T11:41:55.150Z,34.77
2019-05-26T11:42:53.587Z,35.21
2019-05-26T11:43:53.636Z,35.40
2019-05-26T11:44:53.690Z,34.84
2019-05-26T11:45:53.744Z,34.00
2019-05-26T11:46:53.794Z,33.86
2019-05-26T11:47:54.074Z,34.17
2019-05-26T11:48:53.898Z,35.29
2019-05-26T11:49:56.572Z,35.63
2019-05-26T11:50:54.004Z,35.70
2019-05-26T11:51:54.053Z,35.99
2019-05-26T11:52:54.105Z,37.15
2019-05-26T11:53:54.159Z,36.12
2019-05-26T11:54:54.211Z,36.35
2019-05-26T11:55:57.494Z,36.44
2019-05-26T11:56:54.315Z,36.28
2019-05-26T11:57:54.450Z,33.86
2019-05-26T11:58:54.422Z,33.63
2019-05-26T11:59:54.486Z,32.84
2019-05-26T12:00:54.525Z,33.07
2019-05-26T12:01:54.579Z,33.41
2019-05-26T12:02:54.630Z,32.23
2019-05-26T12:03:54.704Z,31.47
2019-05-26T12:04:54.736Z,30.77
2019-05-26T12:05:54.785Z,29.86
2019-05-26T12:06:54.925Z,30.98
2019-05-26T12:07:54.887Z,32.57
2019-05-26T12:08:54.936Z,33.19
2019-05-26T12:09:54.988Z,34.03
2019-05-26T12:10:58.307Z,35.03
2019-05-26T12:11:55.087Z,35.28
2019-05-26T12:12:55.138Z,35.41
2019-05-26T12:13:55.189Z,34.64
2019-05-26T12:14:55.243Z,34.43
2019-05-26T12:15:55.291Z,34.12
2019-05-26T12:16:55.342Z,33.47
2019-05-26T12:17:55.393Z,33.41
2019-05-26T12:18:55.444Z,34.24
2019-05-26T12:19:55.493Z,34.82
2019-05-26T12:20:55.561Z,35.06
2019-05-26T12:21:55.601Z,34.94
2019-05-26T12:22:55.646Z,35.11
2019-05-26T12:23:55.698Z,35.23
2019-05-26T12:24:55.751Z,35.59
2019-05-26T12:25:55.803Z,36.38
2019-05-26T12:26:55.855Z,36.56
2019-05-26T12:27:55.905Z,35.99
2019-05-26T12:28:55.966Z,36.28
2019-05-26T12:29:56.009Z,36.46
2019-05-26T12:30:56.061Z,36.59
2019-05-26T12:31:56.112Z,37.00
2019-05-26T12:32:56.164Z,37.29
2019-05-26T12:33:56.215Z,37.75
2019-05-26T12:34:56.270Z,37.47
2019-05-26T12:35:56.320Z,36.64
2019-05-26T12:36:56.373Z,35.43
2019-05-26T12:37:56.422Z,36.20
2019-05-26T12:38:56.476Z,35.60
2019-05-26T12:39:56.527Z,34.73
2019-05-26T12:40:56.580Z,33.21
2019-05-26T12:41:56.634Z,33.32
2019-05-26T12:42:56.684Z,34.30
2019-05-26T12:43:56.736Z,35.11
2019-05-26T12:44:56.786Z,36.16
2019-05-26T12:45:56.838Z,36.12
2019-05-26T12:46:56.891Z,36.46
2019-05-26T12:47:56.944Z,35.87
2019-05-26T12:48:56.993Z,36.54
2019-05-26T12:49:57.045Z,37.09
2019-05-26T12:50:57.097Z,37.47
2019-05-26T12:51:57.151Z,35.80
2019-05-26T12:52:57.223Z,34.80
2019-05-26T12:53:57.252Z,36.07
2019-05-26T12:54:57.530Z,37.02
2019-05-26T12:55:57.355Z,37.12
2019-05-26T12:56:57.407Z,36.95
2019-05-26T12:57:57.459Z,35.23
2019-05-26T12:58:57.512Z,34.24
2019-05-26T12:59:57.563Z,34.72
2019-05-26T13:00:57.613Z,34.02
2019-05-26T13:01:57.690Z,35.21
2019-05-26T13:02:57.823Z,35.10
2019-05-26T13:03:57.766Z,35.62
2019-05-26T13:04:57.817Z,35.89
2019-05-26T13:06:57.942Z,35.62
2019-05-26T13:07:57.968Z,36.29
2019-05-26T13:08:58.039Z,36.32
2019-05-26T13:09:58.270Z,36.19
2019-05-26T13:10:58.324Z,35.72
2019-05-26T13:11:58.170Z,35.04
2019-05-26T13:12:58.220Z,34.82
2019-05-26T13:13:58.301Z,34.19
2019-05-26T13:15:06.020Z,34.05
2019-05-26T13:15:58.422Z,32.13
2019-05-26T13:17:01.422Z,32.50
2019-05-26T13:17:58.471Z,33.56
2019-05-26T13:18:58.524Z,33.07
2019-05-26T13:19:58.670Z,34.10
2019-05-26T13:20:58.623Z,34.88
2019-05-26T13:21:58.673Z,35.15
2019-05-26T13:22:58.724Z,35.45
2019-05-26T13:23:58.774Z,35.14
2019-05-26T13:24:58.827Z,35.74
2019-05-26T13:25:58.877Z,36.31
2019-05-26T13:26:58.925Z,36.69
2019-05-26T13:27:58.977Z,36.37
2019-05-26T13:28:59.027Z,35.23
2019-05-26T13:29:59.078Z,35.80
2019-05-26T13:30:59.132Z,36.54
2019-05-26T13:31:59.179Z,36.85
2019-05-26T13:32:59.231Z,36.84
2019-05-26T13:33:59.280Z,36.28
2019-05-26T13:34:59.332Z,36.71
2019-05-26T13:35:59.381Z,36.94
2019-05-26T13:36:59.437Z,37.55
2019-05-26T13:37:59.485Z,37.36
2019-05-26T13:38:59.535Z,37.25
2019-05-26T13:39:59.585Z,37.18
2019-05-26T13:40:59.634Z,36.76
2019-05-26T13:41:59.685Z,36.81
2019-05-26T13:42:59.745Z,36.56
2019-05-26T13:43:59.787Z,36.78
2019-05-26T13:44:59.837Z,36.53
2019-05-26T13:45:59.888Z,36.71
2019-05-26T13:46:59.937Z,36.75
2019-05-26T13:47:59.988Z,37.40
2019-05-26T13:49:00.038Z,37.93
2019-05-26T13:50:00.089Z,37.51
2019-05-26T13:51:00.140Z,37.50
2019-05-26T13:52:00.188Z,35.84
2019-05-26T13:53:00.240Z,35.25
2019-05-26T13:54:00.291Z,33.90
2019-05-26T13:55:00.340Z,33.60
2019-05-26T13:56:00.392Z,33.82
2019-05-26T13:57:00.442Z,33.72
2019-05-26T13:58:00.492Z,33.41
2019-05-26T13:59:00.546Z,33.71
2019-05-26T14:00:00.592Z,32.99
2019-05-26T14:01:00.646Z,33.61
2019-05-26T14:02:00.694Z,33.95
2019-05-26T14:03:00.748Z,34.05
2019-05-26T14:04:00.801Z,34.32
2019-05-26T14:05:00.843Z,34.97
2019-05-26T14:06:01.313Z,35.53
2019-05-26T14:07:01.146Z,35.52
2019-05-26T14:08:00.998Z,35.16
2019-05-26T14:09:02.250Z,35.11
2019-05-26T14:10:01.096Z,35.62
2019-05-26T14:11:01.144Z,35.40
2019-05-26T14:12:01.193Z,35.90
2019-05-26T14:13:01.243Z,35.75
2019-05-26T14:14:01.294Z,36.22
2019-05-26T14:15:01.345Z,36.90
2019-05-26T14:16:01.394Z,37.20
2019-05-26T14:17:01.445Z,37.27
2019-05-26T14:18:01.493Z,37.47
2019-05-26T14:19:01.545Z,38.16
2019-05-26T14:20:01.595Z,38.54
2019-05-26T14:21:01.653Z,38.12
2019-05-26T14:22:01.695Z,38.34
2019-05-26T14:23:01.749Z,38.32
2019-05-26T14:24:01.795Z,38.35
2019-05-26T14:25:01.847Z,38.57
2019-05-26T14:26:01.899Z,37.89
2019-05-26T14:27:01.947Z,36.81
2019-05-26T14:28:01.997Z,36.29
2019-05-26T14:29:02.048Z,36.75
2019-05-26T14:30:02.099Z,36.47
2019-05-26T14:31:02.148Z,36.87
2019-05-26T14:32:02.197Z,36.98
2019-05-26T14:33:02.250Z,34.28
2019-05-26T14:34:02.399Z,32.60
2019-05-26T14:35:02.349Z,31.10
2019-05-26T14:36:02.398Z,29.82
2019-05-26T14:37:02.451Z,30.23
2019-05-26T14:38:02.510Z,31.61
2019-05-26T14:39:02.552Z,33.03
2019-05-26T14:40:02.594Z,34.27
2019-05-26T14:41:02.645Z,34.78
2019-05-26T14:42:02.712Z,35.47
2019-05-26T14:43:02.743Z,35.84
2019-05-26T14:44:02.790Z,35.82
2019-05-26T14:45:04.102Z,36.43
2019-05-26T14:46:02.889Z,36.91
2019-05-26T14:47:02.937Z,37.20
2019-05-26T14:48:02.985Z,37.56
2019-05-26T14:49:03.036Z,38.15
2019-05-26T14:50:03.083Z,37.96
2019-05-26T14:51:03.133Z,38.22
2019-05-26T14:52:03.180Z,37.86
2019-05-26T14:53:03.230Z,38.15
2019-05-26T14:54:03.280Z,37.74
2019-05-26T14:55:03.381Z,37.55
2019-05-26T14:56:03.378Z,37.39
2019-05-26T14:57:03.425Z,37.07
2019-05-26T14:58:14.884Z,36.50
2019-05-26T14:59:03.527Z,34.87
2019-05-26T15:00:03.577Z,33.81
2019-05-26T15:01:03.623Z,33.06
2019-05-26T15:02:03.676Z,32.22
2019-05-26T15:04:03.773Z,32.94